sensor_id;sensor_type;location;lat;lon;timestamp;P1;durP1;ratioP1;P2;durP2;ratioP2
20014;SDS011;61787;42.022;23.078;2023-05-31T00:00:55;5.38;;;3.22;;
20014;SDS011;61787;42.022;23.078;2023-05-31T00:01:57;4.00;;;2.60;;
20014;SDS011;61787;42.022;23.078;2023-05-31T00:02:59;6.60;;;3.30;;
20014;SDS011;61787;42.022;23.078;2023-05-31T00:04:01;6.37;;;2.90;;
20014;SDS011;61787;42.022;23.078;2023-05-31T00:05:04;6.63;;;2.90;;
20014;SDS011;61787;42.022;23.078;2023-05-31T00:06:06;5.77;;;3.20;;
20014;SDS011;61787;42.022;23.078;2023-05-31T00:07:08;4.20;;;2.70;;
20014;SDS011;61787;42.022;23.078;2023-05-31T00:08:10;3.97;;;2.87;;
20014;SDS011;61787;42.022;23.078;2023-05-31T00:09:11;5.43;;;3.13;;
20014;SDS011;61787;42.022;23.078;2023-05-31T00:10:13;5.50;;;3.17;;
20014;SDS011;61787;42.022;23.078;2023-05-31T00:11:17;7.60;;;3.17;;
20014;SDS011;61787;42.022;23.078;2023-05-31T00:12:19;3.87;;;2.93;;
20014;SDS011;61787;42.022;23.078;2023-05-31T00:13:20;5.07;;;3.10;;
20014;SDS011;61787;42.022;23.078;2023-05-31T00:14:22;5.63;;;2.80;;
20014;SDS011;61787;42.022;23.078;2023-05-31T00:15:24;3.87;;;3.10;;
20014;SDS011;61787;42.022;23.078;2023-05-31T00:16:26;4.17;;;2.87;;
20014;SDS011;61787;42.022;23.078;2023-05-31T00:17:47;5.80;;;3.20;;
20014;SDS011;61787;42.022;23.078;2023-05-31T00:18:51;6.27;;;2.60;;
20014;SDS011;61787;42.022;23.078;2023-05-31T00:19:53;3.50;;;3.20;;
20014;SDS011;61787;42.022;23.078;2023-05-31T00:20:54;6.13;;;3.20;;
20014;SDS011;61787;42.022;23.078;2023-05-31T00:21:56;5.60;;;3.00;;
20014;SDS011;61787;42.022;23.078;2023-05-31T00:22:58;5.60;;;2.63;;
20014;SDS011;61787;42.022;23.078;2023-05-31T00:24:00;4.60;;;2.97;;
20014;SDS011;61787;42.022;23.078;2023-05-31T00:25:01;7.20;;;3.17;;
20014;SDS011;61787;42.022;23.078;2023-05-31T00:26:03;3.47;;;2.57;;
20014;SDS011;61787;42.022;23.078;2023-05-31T00:27:04;7.50;;;2.97;;
20014;SDS011;61787;42.022;23.078;2023-05-31T00:28:07;5.37;;;2.70;;
20014;SDS011;61787;42.022;23.078;2023-05-31T00:29:09;3.10;;;2.20;;
20014;SDS011;61787;42.022;23.078;2023-05-31T00:30:10;2.57;;;2.37;;
20014;SDS011;61787;42.022;23.078;2023-05-31T00:31:15;4.00;;;1.90;;
20014;SDS011;61787;42.022;23.078;2023-05-31T00:32:16;2.20;;;1.80;;
20014;SDS011;61787;42.022;23.078;2023-05-31T00:33:18;4.40;;;2.00;;
20014;SDS011;61787;42.022;23.078;2023-05-31T00:34:20;3.13;;;1.90;;
20014;SDS011;61787;42.022;23.078;2023-05-31T00:35:21;5.00;;;1.90;;
20014;SDS011;61787;42.022;23.078;2023-05-31T00:36:23;6.70;;;2.00;;
20014;SDS011;61787;42.022;23.078;2023-05-31T00:37:25;3.07;;;1.77;;
20014;SDS011;61787;42.022;23.078;2023-05-31T00:38:26;3.30;;;1.93;;
20014;SDS011;61787;42.022;23.078;2023-05-31T00:39:29;3.87;;;2.57;;
20014;SDS011;61787;42.022;23.078;2023-05-31T00:40:30;3.10;;;2.80;;
20014;SDS011;61787;42.022;23.078;2023-05-31T00:41:32;7.13;;;3.03;;
20014;SDS011;61787;42.022;23.078;2023-05-31T00:42:34;3.30;;;2.83;;
20014;SDS011;61787;42.022;23.078;2023-05-31T00:43:35;5.53;;;3.50;;
20014;SDS011;61787;42.022;23.078;2023-05-31T00:44:37;4.43;;;3.27;;
20014;SDS011;61787;42.022;23.078;2023-05-31T00:45:39;4.97;;;3.33;;
20014;SDS011;61787;42.022;23.078;2023-05-31T00:46:40;4.90;;;3.37;;
20014;SDS011;61787;42.022;23.078;2023-05-31T00:47:42;5.03;;;3.10;;
20014;SDS011;61787;42.022;23.078;2023-05-31T00:48:45;10.00;;;3.10;;
20014;SDS011;61787;42.022;23.078;2023-05-31T00:49:46;4.80;;;2.97;;
20014;SDS011;61787;42.022;23.078;2023-05-31T00:50:51;4.87;;;3.10;;
20014;SDS011;61787;42.022;23.078;2023-05-31T00:51:53;4.10;;;3.07;;
20014;SDS011;61787;42.022;23.078;2023-05-31T00:52:54;4.32;;;3.35;;
20014;SDS011;61787;42.022;23.078;2023-05-31T00:53:58;4.37;;;2.80;;
20014;SDS011;61787;42.022;23.078;2023-05-31T00:55:01;5.17;;;2.57;;
20014;SDS011;61787;42.022;23.078;2023-05-31T00:56:03;3.37;;;2.40;;
20014;SDS011;61787;42.022;23.078;2023-05-31T00:57:05;4.47;;;2.70;;
20014;SDS011;61787;42.022;23.078;2023-05-31T00:58:07;6.67;;;2.60;;
20014;SDS011;61787;42.022;23.078;2023-05-31T00:59:09;7.93;;;2.90;;
20014;SDS011;61787;42.022;23.078;2023-05-31T01:00:11;3.43;;;2.47;;
20014;SDS011;61787;42.022;23.078;2023-05-31T01:01:14;5.37;;;2.70;;
20014;SDS011;61787;42.022;23.078;2023-05-31T01:02:16;6.13;;;2.60;;
20014;SDS011;61787;42.022;23.078;2023-05-31T01:03:20;4.13;;;2.70;;
20014;SDS011;61787;42.022;23.078;2023-05-31T01:04:22;4.27;;;2.40;;
20014;SDS011;61787;42.022;23.078;2023-05-31T01:05:24;4.43;;;2.37;;
20014;SDS011;61787;42.022;23.078;2023-05-31T01:06:26;4.60;;;2.33;;
20014;SDS011;61787;42.022;23.078;2023-05-31T01:07:34;3.70;;;2.60;;
20014;SDS011;61787;42.022;23.078;2023-05-31T01:08:35;3.83;;;2.50;;
20014;SDS011;61787;42.022;23.078;2023-05-31T01:09:39;4.50;;;2.67;;
20014;SDS011;61787;42.022;23.078;2023-05-31T01:10:44;2.50;;;2.30;;
20014;SDS011;61787;42.022;23.078;2023-05-31T01:15:27;2.33;;;2.13;;
20014;SDS011;61787;42.022;23.078;2023-05-31T01:16:41;2.90;;;2.50;;
20014;SDS011;61787;42.022;23.078;2023-05-31T01:17:59;3.47;;;2.63;;
20014;SDS011;61787;42.022;23.078;2023-05-31T01:19:13;4.00;;;2.97;;
20014;SDS011;61787;42.022;23.078;2023-05-31T01:20:31;4.30;;;2.83;;
20014;SDS011;61787;42.022;23.078;2023-05-31T01:21:44;6.03;;;2.60;;
20014;SDS011;61787;42.022;23.078;2023-05-31T01:22:55;5.80;;;2.70;;
20014;SDS011;61787;42.022;23.078;2023-05-31T01:26:43;6.13;;;2.60;;
20014;SDS011;61787;42.022;23.078;2023-05-31T01:27:51;4.30;;;2.53;;
20014;SDS011;61787;42.022;23.078;2023-05-31T01:28:55;3.20;;;2.60;;
20014;SDS011;61787;42.022;23.078;2023-05-31T01:30:01;3.30;;;2.60;;
20014;SDS011;61787;42.022;23.078;2023-05-31T01:31:07;4.57;;;2.60;;
20014;SDS011;61787;42.022;23.078;2023-05-31T01:32:10;5.93;;;2.43;;
20014;SDS011;61787;42.022;23.078;2023-05-31T01:33:14;5.23;;;2.43;;
20014;SDS011;61787;42.022;23.078;2023-05-31T01:34:18;4.70;;;2.90;;
20014;SDS011;61787;42.022;23.078;2023-05-31T01:35:20;2.93;;;2.10;;
20014;SDS011;61787;42.022;23.078;2023-05-31T01:36:21;4.93;;;2.10;;
20014;SDS011;61787;42.022;23.078;2023-05-31T01:37:23;3.70;;;2.40;;
20014;SDS011;61787;42.022;23.078;2023-05-31T01:38:25;7.13;;;3.70;;
20014;SDS011;61787;42.022;23.078;2023-05-31T01:39:26;5.87;;;2.93;;
20014;SDS011;61787;42.022;23.078;2023-05-31T01:40:28;3.87;;;2.20;;
20014;SDS011;61787;42.022;23.078;2023-05-31T01:41:36;2.50;;;2.10;;
20014;SDS011;61787;42.022;23.078;2023-05-31T01:42:43;2.50;;;2.00;;
20014;SDS011;61787;42.022;23.078;2023-05-31T01:43:47;3.67;;;2.50;;
20014;SDS011;61787;42.022;23.078;2023-05-31T01:44:51;3.77;;;2.20;;
20014;SDS011;61787;42.022;23.078;2023-05-31T01:45:54;3.37;;;2.03;;
20014;SDS011;61787;42.022;23.078;2023-05-31T01:47:01;3.23;;;2.37;;
20014;SDS011;61787;42.022;23.078;2023-05-31T01:48:04;4.40;;;2.40;;
20014;SDS011;61787;42.022;23.078;2023-05-31T01:49:09;5.13;;;2.70;;
20014;SDS011;61787;42.022;23.078;2023-05-31T01:50:12;3.63;;;2.23;;
20014;SDS011;61787;42.022;23.078;2023-05-31T01:51:14;4.77;;;2.60;;
20014;SDS011;61787;42.022;23.078;2023-05-31T01:52:17;4.03;;;2.97;;
20014;SDS011;61787;42.022;23.078;2023-05-31T01:53:18;4.73;;;3.00;;
20014;SDS011;61787;42.022;23.078;2023-05-31T01:54:20;6.87;;;3.40;;
20014;SDS011;61787;42.022;23.078;2023-05-31T01:55:22;3.27;;;2.97;;
20014;SDS011;61787;42.022;23.078;2023-05-31T01:56:24;4.67;;;3.03;;
20014;SDS011;61787;42.022;23.078;2023-05-31T01:57:26;6.80;;;3.53;;
20014;SDS011;61787;42.022;23.078;2023-05-31T01:58:31;3.50;;;3.10;;
20014;SDS011;61787;42.022;23.078;2023-05-31T01:59:35;3.50;;;3.20;;
20014;SDS011;61787;42.022;23.078;2023-05-31T02:00:40;4.33;;;3.40;;
20014;SDS011;61787;42.022;23.078;2023-05-31T02:01:42;3.50;;;3.20;;
20014;SDS011;61787;42.022;23.078;2023-05-31T02:02:44;7.13;;;4.00;;
20014;SDS011;61787;42.022;23.078;2023-05-31T02:03:48;5.43;;;4.23;;
20014;SDS011;61787;42.022;23.078;2023-05-31T02:05:14;5.20;;;3.30;;
20014;SDS011;61787;42.022;23.078;2023-05-31T02:06:14;5.00;;;2.70;;
20014;SDS011;61787;42.022;23.078;2023-05-31T02:07:16;4.37;;;2.60;;
20014;SDS011;61787;42.022;23.078;2023-05-31T02:08:18;5.10;;;2.47;;
20014;SDS011;61787;42.022;23.078;2023-05-31T02:09:22;5.43;;;2.60;;
20014;SDS011;61787;42.022;23.078;2023-05-31T02:10:25;4.90;;;2.33;;
20014;SDS011;61787;42.022;23.078;2023-05-31T02:11:27;3.40;;;2.03;;
20014;SDS011;61787;42.022;23.078;2023-05-31T02:12:28;2.33;;;1.70;;
20014;SDS011;61787;42.022;23.078;2023-05-31T02:13:31;2.97;;;1.77;;
20014;SDS011;61787;42.022;23.078;2023-05-31T02:14:32;2.60;;;1.70;;
20014;SDS011;61787;42.022;23.078;2023-05-31T02:15:34;1.70;;;1.60;;
20014;SDS011;61787;42.022;23.078;2023-05-31T02:16:38;1.60;;;1.50;;
20014;SDS011;61787;42.022;23.078;2023-05-31T02:17:40;2.27;;;1.50;;
20014;SDS011;61787;42.022;23.078;2023-05-31T02:18:48;3.77;;;1.60;;
20014;SDS011;61787;42.022;23.078;2023-05-31T02:19:52;4.50;;;1.80;;
20014;SDS011;61787;42.022;23.078;2023-05-31T02:20:58;4.50;;;1.80;;
20014;SDS011;61787;42.022;23.078;2023-05-31T02:22:00;4.07;;;1.43;;
20014;SDS011;61787;42.022;23.078;2023-05-31T02:23:05;2.27;;;1.67;;
20014;SDS011;61787;42.022;23.078;2023-05-31T02:24:07;7.22;;;1.92;;
20014;SDS011;61787;42.022;23.078;2023-05-31T02:25:09;2.97;;;1.90;;
20014;SDS011;61787;42.022;23.078;2023-05-31T02:26:11;6.20;;;2.67;;
20014;SDS011;61787;42.022;23.078;2023-05-31T02:27:13;6.23;;;2.87;;
20014;SDS011;61787;42.022;23.078;2023-05-31T02:28:15;3.40;;;2.70;;
20014;SDS011;61787;42.022;23.078;2023-05-31T02:29:17;6.90;;;3.42;;
20014;SDS011;61787;42.022;23.078;2023-05-31T02:30:20;5.13;;;3.50;;
20014;SDS011;61787;42.022;23.078;2023-05-31T02:31:21;3.63;;;2.83;;
20014;SDS011;61787;42.022;23.078;2023-05-31T02:32:23;4.47;;;3.03;;
20014;SDS011;61787;42.022;23.078;2023-05-31T02:33:25;5.20;;;3.20;;
20014;SDS011;61787;42.022;23.078;2023-05-31T02:34:27;6.70;;;3.58;;
20014;SDS011;61787;42.022;23.078;2023-05-31T02:35:29;4.20;;;3.25;;
20014;SDS011;61787;42.022;23.078;2023-05-31T02:36:31;6.05;;;3.20;;
20014;SDS011;61787;42.022;23.078;2023-05-31T02:37:33;6.55;;;3.92;;
20014;SDS011;61787;42.022;23.078;2023-05-31T02:38:35;4.20;;;3.30;;
20014;SDS011;61787;42.022;23.078;2023-05-31T02:39:37;3.87;;;2.83;;
20014;SDS011;61787;42.022;23.078;2023-05-31T02:40:38;5.93;;;3.40;;
20014;SDS011;61787;42.022;23.078;2023-05-31T02:41:40;5.33;;;3.60;;
20014;SDS011;61787;42.022;23.078;2023-05-31T02:42:42;6.70;;;3.40;;
20014;SDS011;61787;42.022;23.078;2023-05-31T02:43:44;9.43;;;3.58;;
20014;SDS011;61787;42.022;23.078;2023-05-31T02:44:46;4.40;;;3.37;;
20014;SDS011;61787;42.022;23.078;2023-05-31T02:45:48;6.63;;;3.25;;
20014;SDS011;61787;42.022;23.078;2023-05-31T02:46:49;6.22;;;3.40;;
20014;SDS011;61787;42.022;23.078;2023-05-31T02:47:52;7.70;;;3.77;;
20014;SDS011;61787;42.022;23.078;2023-05-31T02:48:53;4.60;;;3.38;;
20014;SDS011;61787;42.022;23.078;2023-05-31T02:49:55;4.07;;;3.63;;
20014;SDS011;61787;42.022;23.078;2023-05-31T02:50:57;6.23;;;3.87;;
20014;SDS011;61787;42.022;23.078;2023-05-31T02:51:59;5.50;;;4.00;;
20014;SDS011;61787;42.022;23.078;2023-05-31T02:53:00;6.57;;;3.90;;
20014;SDS011;61787;42.022;23.078;2023-05-31T02:54:05;10.57;;;4.00;;
20014;SDS011;61787;42.022;23.078;2023-05-31T02:55:07;5.65;;;3.47;;
20014;SDS011;61787;42.022;23.078;2023-05-31T02:56:09;6.40;;;3.93;;
20014;SDS011;61787;42.022;23.078;2023-05-31T02:57:10;5.20;;;3.50;;
20014;SDS011;61787;42.022;23.078;2023-05-31T02:58:12;5.65;;;3.78;;
20014;SDS011;61787;42.022;23.078;2023-05-31T02:59:15;3.93;;;3.33;;
20014;SDS011;61787;42.022;23.078;2023-05-31T03:00:17;6.17;;;3.60;;
20014;SDS011;61787;42.022;23.078;2023-05-31T03:01:20;5.57;;;3.90;;
20014;SDS011;61787;42.022;23.078;2023-05-31T03:02:22;3.80;;;3.43;;
20014;SDS011;61787;42.022;23.078;2023-05-31T03:03:24;4.43;;;3.87;;
20014;SDS011;61787;42.022;23.078;2023-05-31T03:04:25;7.22;;;4.13;;
20014;SDS011;61787;42.022;23.078;2023-05-31T03:05:27;5.50;;;4.22;;
20014;SDS011;61787;42.022;23.078;2023-05-31T03:06:30;4.80;;;4.23;;
20014;SDS011;61787;42.022;23.078;2023-05-31T03:07:32;9.20;;;4.07;;
20014;SDS011;61787;42.022;23.078;2023-05-31T03:08:34;5.17;;;4.43;;
20014;SDS011;61787;42.022;23.078;2023-05-31T03:09:36;7.57;;;4.63;;
20014;SDS011;61787;42.022;23.078;2023-05-31T03:10:38;7.10;;;4.63;;
20014;SDS011;61787;42.022;23.078;2023-05-31T03:11:40;4.90;;;3.70;;
20014;SDS011;61787;42.022;23.078;2023-05-31T03:12:41;6.30;;;3.90;;
20014;SDS011;61787;42.022;23.078;2023-05-31T03:13:43;6.67;;;3.97;;
20014;SDS011;61787;42.022;23.078;2023-05-31T03:14:45;4.97;;;3.70;;
20014;SDS011;61787;42.022;23.078;2023-05-31T03:15:46;6.37;;;3.60;;
20014;SDS011;61787;42.022;23.078;2023-05-31T03:16:48;6.47;;;3.33;;
20014;SDS011;61787;42.022;23.078;2023-05-31T03:17:50;5.40;;;3.43;;
20014;SDS011;61787;42.022;23.078;2023-05-31T03:18:53;3.43;;;3.13;;
20014;SDS011;61787;42.022;23.078;2023-05-31T03:19:54;5.53;;;3.50;;
20014;SDS011;61787;42.022;23.078;2023-05-31T03:20:56;4.70;;;3.63;;
20014;SDS011;61787;42.022;23.078;2023-05-31T03:21:58;6.13;;;3.73;;
20014;SDS011;61787;42.022;23.078;2023-05-31T03:23:00;4.53;;;3.97;;
20014;SDS011;61787;42.022;23.078;2023-05-31T03:24:01;4.67;;;3.73;;
20014;SDS011;61787;42.022;23.078;2023-05-31T03:25:04;5.70;;;4.30;;
20014;SDS011;61787;42.022;23.078;2023-05-31T03:26:06;4.87;;;4.13;;
20014;SDS011;61787;42.022;23.078;2023-05-31T03:27:08;4.70;;;4.23;;
20014;SDS011;61787;42.022;23.078;2023-05-31T03:28:10;5.60;;;4.20;;
20014;SDS011;61787;42.022;23.078;2023-05-31T03:29:11;6.63;;;4.30;;
20014;SDS011;61787;42.022;23.078;2023-05-31T03:30:13;6.33;;;4.40;;
20014;SDS011;61787;42.022;23.078;2023-05-31T03:31:15;5.17;;;3.70;;
20014;SDS011;61787;42.022;23.078;2023-05-31T03:32:17;4.17;;;3.77;;
20014;SDS011;61787;42.022;23.078;2023-05-31T03:33:18;4.00;;;3.60;;
20014;SDS011;61787;42.022;23.078;2023-05-31T03:34:20;3.77;;;3.40;;
20014;SDS011;61787;42.022;23.078;2023-05-31T03:35:24;5.63;;;3.93;;
20014;SDS011;61787;42.022;23.078;2023-05-31T03:36:25;6.03;;;3.53;;
20014;SDS011;61787;42.022;23.078;2023-05-31T03:37:27;3.70;;;3.38;;
20014;SDS011;61787;42.022;23.078;2023-05-31T03:38:29;3.97;;;3.57;;
20014;SDS011;61787;42.022;23.078;2023-05-31T03:39:31;4.07;;;3.22;;
20014;SDS011;61787;42.022;23.078;2023-05-31T03:40:33;4.67;;;3.40;;
20014;SDS011;61787;42.022;23.078;2023-05-31T03:41:35;5.35;;;3.40;;
20014;SDS011;61787;42.022;23.078;2023-05-31T03:42:36;4.87;;;3.43;;
20014;SDS011;61787;42.022;23.078;2023-05-31T03:43:39;4.80;;;3.35;;
20014;SDS011;61787;42.022;23.078;2023-05-31T03:44:40;4.13;;;3.50;;
20014;SDS011;61787;42.022;23.078;2023-05-31T03:45:42;6.10;;;3.63;;
20014;SDS011;61787;42.022;23.078;2023-05-31T03:46:44;5.30;;;3.57;;
20014;SDS011;61787;42.022;23.078;2023-05-31T03:47:45;5.17;;;2.90;;
20014;SDS011;61787;42.022;23.078;2023-05-31T03:48:47;4.30;;;3.60;;
20014;SDS011;61787;42.022;23.078;2023-05-31T03:49:49;4.75;;;3.60;;
20014;SDS011;61787;42.022;23.078;2023-05-31T03:50:50;3.93;;;3.33;;
20014;SDS011;61787;42.022;23.078;2023-05-31T03:51:55;4.20;;;3.20;;
20014;SDS011;61787;42.022;23.078;2023-05-31T03:52:59;8.37;;;3.00;;
20014;SDS011;61787;42.022;23.078;2023-05-31T03:54:01;3.63;;;3.30;;
20014;SDS011;61787;42.022;23.078;2023-05-31T03:55:03;6.53;;;3.37;;
20014;SDS011;61787;42.022;23.078;2023-05-31T03:56:05;8.57;;;3.70;;
20014;SDS011;61787;42.022;23.078;2023-05-31T03:57:06;4.30;;;3.10;;
20014;SDS011;61787;42.022;23.078;2023-05-31T03:58:08;5.73;;;3.13;;
20014;SDS011;61787;42.022;23.078;2023-05-31T03:59:10;3.93;;;2.90;;
20014;SDS011;61787;42.022;23.078;2023-05-31T04:00:12;9.00;;;2.80;;
20014;SDS011;61787;42.022;23.078;2023-05-31T04:01:14;5.17;;;2.70;;
20014;SDS011;61787;42.022;23.078;2023-05-31T04:02:15;4.43;;;3.37;;
20014;SDS011;61787;42.022;23.078;2023-05-31T04:03:17;3.77;;;2.90;;
20014;SDS011;61787;42.022;23.078;2023-05-31T04:04:19;6.90;;;3.27;;
20014;SDS011;61787;42.022;23.078;2023-05-31T04:05:22;5.13;;;3.00;;
20014;SDS011;61787;42.022;23.078;2023-05-31T04:06:23;5.17;;;3.27;;
20014;SDS011;61787;42.022;23.078;2023-05-31T04:07:25;4.03;;;2.73;;
20014;SDS011;61787;42.022;23.078;2023-05-31T04:08:27;5.17;;;2.67;;
20014;SDS011;61787;42.022;23.078;2023-05-31T04:09:29;4.27;;;3.20;;
20014;SDS011;61787;42.022;23.078;2023-05-31T04:10:31;4.73;;;2.53;;
20014;SDS011;61787;42.022;23.078;2023-05-31T04:11:33;3.73;;;2.43;;
20014;SDS011;61787;42.022;23.078;2023-05-31T04:12:34;4.83;;;3.00;;
20014;SDS011;61787;42.022;23.078;2023-05-31T04:13:36;5.67;;;3.13;;
20014;SDS011;61787;42.022;23.078;2023-05-31T04:14:38;6.53;;;3.10;;
20014;SDS011;61787;42.022;23.078;2023-05-31T04:15:39;6.37;;;3.13;;
20014;SDS011;61787;42.022;23.078;2023-05-31T04:16:41;6.47;;;3.33;;
20014;SDS011;61787;42.022;23.078;2023-05-31T04:17:43;4.13;;;3.37;;
20014;SDS011;61787;42.022;23.078;2023-05-31T04:18:45;4.93;;;3.53;;
20014;SDS011;61787;42.022;23.078;2023-05-31T04:19:46;6.03;;;3.20;;
20014;SDS011;61787;42.022;23.078;2023-05-31T04:20:48;4.17;;;3.27;;
20014;SDS011;61787;42.022;23.078;2023-05-31T04:21:50;7.13;;;3.40;;
20014;SDS011;61787;42.022;23.078;2023-05-31T04:22:51;6.33;;;3.50;;
20014;SDS011;61787;42.022;23.078;2023-05-31T04:23:54;7.80;;;3.93;;
20014;SDS011;61787;42.022;23.078;2023-05-31T04:24:56;8.03;;;4.67;;
20014;SDS011;61787;42.022;23.078;2023-05-31T04:25:58;10.20;;;4.72;;
20014;SDS011;61787;42.022;23.078;2023-05-31T04:27:03;6.60;;;4.50;;
20014;SDS011;61787;42.022;23.078;2023-05-31T04:28:08;8.67;;;5.17;;
20014;SDS011;61787;42.022;23.078;2023-05-31T04:29:09;11.85;;;5.38;;
20014;SDS011;61787;42.022;23.078;2023-05-31T04:30:11;7.32;;;4.57;;
20014;SDS011;61787;42.022;23.078;2023-05-31T04:31:13;7.22;;;5.15;;
20014;SDS011;61787;42.022;23.078;2023-05-31T04:32:15;7.43;;;4.88;;
20014;SDS011;61787;42.022;23.078;2023-05-31T04:33:17;8.85;;;5.10;;
20014;SDS011;61787;42.022;23.078;2023-05-31T04:34:20;6.80;;;4.80;;
20014;SDS011;61787;42.022;23.078;2023-05-31T04:35:22;8.13;;;5.27;;
20014;SDS011;61787;42.022;23.078;2023-05-31T04:36:24;6.38;;;4.38;;
20014;SDS011;61787;42.022;23.078;2023-05-31T04:37:26;8.57;;;4.97;;
20014;SDS011;61787;42.022;23.078;2023-05-31T04:38:30;10.05;;;5.32;;
20014;SDS011;61787;42.022;23.078;2023-05-31T04:39:33;7.03;;;4.82;;
20014;SDS011;61787;42.022;23.078;2023-05-31T04:40:35;9.05;;;4.80;;
20014;SDS011;61787;42.022;23.078;2023-05-31T04:41:37;7.03;;;4.70;;
20014;SDS011;61787;42.022;23.078;2023-05-31T04:42:39;6.60;;;4.53;;
20014;SDS011;61787;42.022;23.078;2023-05-31T04:43:41;7.95;;;4.78;;
20014;SDS011;61787;42.022;23.078;2023-05-31T04:44:44;7.25;;;5.10;;
20014;SDS011;61787;42.022;23.078;2023-05-31T04:45:46;6.80;;;4.20;;
20014;SDS011;61787;42.022;23.078;2023-05-31T04:46:48;11.00;;;4.55;;
20014;SDS011;61787;42.022;23.078;2023-05-31T04:47:50;7.18;;;4.40;;
20014;SDS011;61787;42.022;23.078;2023-05-31T04:48:52;7.65;;;4.85;;
20014;SDS011;61787;42.022;23.078;2023-05-31T04:49:57;4.65;;;3.97;;
20014;SDS011;61787;42.022;23.078;2023-05-31T04:50:59;8.60;;;4.35;;
20014;SDS011;61787;42.022;23.078;2023-05-31T04:52:01;7.90;;;4.45;;
20014;SDS011;61787;42.022;23.078;2023-05-31T04:53:03;7.97;;;4.22;;
20014;SDS011;61787;42.022;23.078;2023-05-31T04:54:05;6.68;;;4.45;;
20014;SDS011;61787;42.022;23.078;2023-05-31T04:55:07;7.00;;;4.32;;
20014;SDS011;61787;42.022;23.078;2023-05-31T04:56:09;6.97;;;3.92;;
20014;SDS011;61787;42.022;23.078;2023-05-31T04:57:13;7.22;;;4.35;;
20014;SDS011;61787;42.022;23.078;2023-05-31T04:58:15;6.63;;;4.30;;
20014;SDS011;61787;42.022;23.078;2023-05-31T04:59:18;6.82;;;4.15;;
20014;SDS011;61787;42.022;23.078;2023-05-31T05:00:19;6.72;;;4.10;;
20014;SDS011;61787;42.022;23.078;2023-05-31T05:01:24;5.63;;;4.25;;
20014;SDS011;61787;42.022;23.078;2023-05-31T05:02:26;8.60;;;4.38;;
20014;SDS011;61787;42.022;23.078;2023-05-31T05:03:28;9.60;;;4.38;;
20014;SDS011;61787;42.022;23.078;2023-05-31T05:04:30;9.05;;;4.38;;
20014;SDS011;61787;42.022;23.078;2023-05-31T05:05:32;8.32;;;4.60;;
20014;SDS011;61787;42.022;23.078;2023-05-31T05:06:33;7.75;;;4.28;;
20014;SDS011;61787;42.022;23.078;2023-05-31T05:07:38;6.63;;;4.53;;
20014;SDS011;61787;42.022;23.078;2023-05-31T05:08:40;7.53;;;4.18;;
20014;SDS011;61787;42.022;23.078;2023-05-31T05:09:42;8.50;;;4.68;;
20014;SDS011;61787;42.022;23.078;2023-05-31T05:10:44;5.85;;;4.60;;
20014;SDS011;61787;42.022;23.078;2023-05-31T05:11:45;6.45;;;4.22;;
20014;SDS011;61787;42.022;23.078;2023-05-31T05:12:48;6.00;;;4.68;;
20014;SDS011;61787;42.022;23.078;2023-05-31T05:13:53;7.28;;;4.50;;
20014;SDS011;61787;42.022;23.078;2023-05-31T05:14:55;6.95;;;4.38;;
20014;SDS011;61787;42.022;23.078;2023-05-31T05:15:56;6.70;;;5.00;;
20014;SDS011;61787;42.022;23.078;2023-05-31T05:16:58;10.07;;;4.82;;
20014;SDS011;61787;42.022;23.078;2023-05-31T05:18:00;9.68;;;4.93;;
20014;SDS011;61787;42.022;23.078;2023-05-31T05:19:01;8.40;;;5.05;;
20014;SDS011;61787;42.022;23.078;2023-05-31T05:20:03;6.03;;;4.50;;
20014;SDS011;61787;42.022;23.078;2023-05-31T05:21:10;5.93;;;5.00;;
20014;SDS011;61787;42.022;23.078;2023-05-31T05:22:11;7.72;;;4.80;;
20014;SDS011;61787;42.022;23.078;2023-05-31T05:23:13;7.90;;;4.93;;
20014;SDS011;61787;42.022;23.078;2023-05-31T05:24:15;7.95;;;5.13;;
20014;SDS011;61787;42.022;23.078;2023-05-31T05:25:17;11.35;;;5.00;;
20014;SDS011;61787;42.022;23.078;2023-05-31T05:26:19;9.35;;;5.05;;
20014;SDS011;61787;42.022;23.078;2023-05-31T05:27:21;6.75;;;4.75;;
20014;SDS011;61787;42.022;23.078;2023-05-31T05:28:23;6.88;;;4.70;;
20014;SDS011;61787;42.022;23.078;2023-05-31T05:29:24;6.85;;;4.60;;
20014;SDS011;61787;42.022;23.078;2023-05-31T05:30:26;6.53;;;5.30;;
20014;SDS011;61787;42.022;23.078;2023-05-31T05:31:28;6.63;;;4.68;;
20014;SDS011;61787;42.022;23.078;2023-05-31T05:32:30;9.15;;;5.22;;
20014;SDS011;61787;42.022;23.078;2023-05-31T05:33:31;11.00;;;5.80;;
20014;SDS011;61787;42.022;23.078;2023-05-31T05:34:34;6.80;;;4.75;;
20014;SDS011;61787;42.022;23.078;2023-05-31T05:35:36;6.97;;;5.10;;
20014;SDS011;61787;42.022;23.078;2023-05-31T05:36:38;5.75;;;5.18;;
20014;SDS011;61787;42.022;23.078;2023-05-31T05:37:40;5.72;;;4.85;;
20014;SDS011;61787;42.022;23.078;2023-05-31T05:38:41;6.32;;;4.95;;
20014;SDS011;61787;42.022;23.078;2023-05-31T05:39:43;7.35;;;4.72;;
20014;SDS011;61787;42.022;23.078;2023-05-31T05:40:45;6.88;;;4.75;;
20014;SDS011;61787;42.022;23.078;2023-05-31T05:41:46;6.40;;;4.50;;
20014;SDS011;61787;42.022;23.078;2023-05-31T05:42:48;11.25;;;5.28;;
20014;SDS011;61787;42.022;23.078;2023-05-31T05:43:50;8.82;;;5.03;;
20014;SDS011;61787;42.022;23.078;2023-05-31T05:44:51;8.95;;;5.28;;
20014;SDS011;61787;42.022;23.078;2023-05-31T05:45:53;5.75;;;4.35;;
20014;SDS011;61787;42.022;23.078;2023-05-31T05:46:54;7.47;;;5.15;;
20014;SDS011;61787;42.022;23.078;2023-05-31T05:47:57;7.22;;;6.32;;
20014;SDS011;61787;42.022;23.078;2023-05-31T05:48:59;8.57;;;5.00;;
20014;SDS011;61787;42.022;23.078;2023-05-31T05:50:01;7.55;;;6.05;;
20014;SDS011;61787;42.022;23.078;2023-05-31T05:51:03;6.03;;;5.18;;
20014;SDS011;61787;42.022;23.078;2023-05-31T05:52:05;8.57;;;5.38;;
20014;SDS011;61787;42.022;23.078;2023-05-31T05:53:07;7.43;;;5.45;;
20014;SDS011;61787;42.022;23.078;2023-05-31T05:54:09;8.55;;;5.43;;
20014;SDS011;61787;42.022;23.078;2023-05-31T05:55:10;6.13;;;5.53;;
20014;SDS011;61787;42.022;23.078;2023-05-31T05:56:12;9.18;;;6.15;;
20014;SDS011;61787;42.022;23.078;2023-05-31T05:57:19;12.98;;;5.85;;
20014;SDS011;61787;42.022;23.078;2023-05-31T05:58:20;8.38;;;5.45;;
20014;SDS011;61787;42.022;23.078;2023-05-31T05:59:22;10.07;;;5.47;;
20014;SDS011;61787;42.022;23.078;2023-05-31T06:00:24;7.93;;;5.32;;
20014;SDS011;61787;42.022;23.078;2023-05-31T06:01:26;5.90;;;5.30;;
20014;SDS011;61787;42.022;23.078;2023-05-31T06:02:28;8.02;;;6.50;;
20014;SDS011;61787;42.022;23.078;2023-05-31T06:03:30;10.40;;;5.70;;
20014;SDS011;61787;42.022;23.078;2023-05-31T06:04:32;9.50;;;5.80;;
20014;SDS011;61787;42.022;23.078;2023-05-31T06:05:33;8.85;;;5.93;;
20014;SDS011;61787;42.022;23.078;2023-05-31T06:06:35;6.50;;;5.28;;
20014;SDS011;61787;42.022;23.078;2023-05-31T06:07:37;6.97;;;4.90;;
20014;SDS011;61787;42.022;23.078;2023-05-31T06:08:39;7.40;;;5.13;;
20014;SDS011;61787;42.022;23.078;2023-05-31T06:09:40;6.93;;;5.35;;
20014;SDS011;61787;42.022;23.078;2023-05-31T06:10:42;11.35;;;5.88;;
20014;SDS011;61787;42.022;23.078;2023-05-31T06:11:44;9.55;;;5.68;;
20014;SDS011;61787;42.022;23.078;2023-05-31T06:12:46;8.48;;;5.40;;
20014;SDS011;61787;42.022;23.078;2023-05-31T06:13:47;9.75;;;5.80;;
20014;SDS011;61787;42.022;23.078;2023-05-31T06:14:49;10.13;;;4.95;;
20014;SDS011;61787;42.022;23.078;2023-05-31T06:15:51;9.77;;;5.13;;
20014;SDS011;61787;42.022;23.078;2023-05-31T06:16:53;8.00;;;5.57;;
20014;SDS011;61787;42.022;23.078;2023-05-31T06:17:55;7.35;;;5.25;;